Time;durP1;ratioP1;P1;durP2;ratioP2;P2;SDS_P1;SDS_P2;PMS_P1;PMS_P2;Temp;Humidity;BMP_temperature;BMP_pressure;BME280_temperature;BME280_humidity;BME280_pressure;Samples;Min_cycle;Max_cycle;Signal;HPM_P1;HPM_P2
2023/04/15 00:00:39;;;;;;;11.20;6.55;;;9.70;70.30;;;9.01;54.79;99764.34;5032015;28;20042;-79
2023/04/15 00:03:07;;;;;;;11.45;6.10;;;9.60;70.10;;;8.99;54.93;99771.75;5030603;28;20051;-79
2023/04/15 00:05:34;;;;;;;12.90;6.07;;;9.60;70.10;;;8.97;54.79;99763.16;5031757;28;20049;-79
2023/04/15 00:08:01;;;;;;;12.80;6.40;;;9.60;70.10;;;8.94;54.74;99762.81;5031605;28;20113;-78
2023/04/15 00:10:29;;;;;;;11.38;6.13;;;9.60;70.10;;;8.90;54.83;99766.94;5033443;28;20037;-79
2023/04/15 00:12:56;;;;;;;14.68;6.53;;;9.50;70.20;;;8.89;54.76;99765.31;5032329;28;20132;-78
2023/04/15 00:15:23;;;;;;;12.52;6.05;;;9.50;70.10;;;8.86;54.75;99768.38;5020128;28;20034;-79
2023/04/15 00:17:52;;;;;;;14.27;6.40;;;9.50;70.20;;;8.84;54.81;99771.28;5031305;28;20064;-80
2023/04/15 00:20:19;;;;;;;13.85;6.57;;;9.40;70.30;;;8.81;54.95;99766.38;5035502;28;20046;-78
2023/04/15 00:22:46;;;;;;;12.48;6.60;;;9.60;70.30;;;8.81;55.04;99765.56;5031592;28;20375;-81
2023/04/15 00:25:14;;;;;;;13.00;6.47;;;9.40;70.50;;;8.80;55.19;99763.94;5031454;28;20494;-79
2023/04/15 00:27:41;;;;;;;14.18;6.22;;;9.40;70.70;;;8.77;55.32;99766.00;5031183;28;20049;-79
2023/04/15 00:30:10;;;;;;;13.95;6.85;;;9.40;70.70;;;8.74;55.48;99761.13;5030318;28;20047;-80
2023/04/15 00:32:37;;;;;;;12.43;6.22;;;9.30;70.90;;;8.74;55.36;99770.94;5019040;28;20433;-79
2023/04/15 00:35:07;;;;;;;12.45;6.60;;;9.30;71.00;;;8.72;55.41;99760.50;5025819;28;20057;-79
2023/04/15 00:37:35;;;;;;;13.77;6.82;;;9.30;71.00;;;8.71;55.39;99758.06;5026049;28;20064;-78
2023/04/15 00:40:04;;;;;;;13.55;6.43;;;9.30;71.20;;;8.69;55.57;99760.97;5031518;28;20073;-78
2023/04/15 00:42:32;;;;;;;14.30;6.50;;;9.30;71.30;;;8.66;55.51;99758.72;5030889;28;20049;-78
2023/04/15 00:44:59;;;;;;;11.98;6.47;;;9.30;71.30;;;8.65;55.77;99757.09;5029672;28;20037;-78
2023/04/15 00:47:29;;;;;;;11.43;6.45;;;9.20;71.30;;;8.63;55.68;99751.16;5030263;28;20102;-77
2023/04/15 00:49:57;;;;;;;11.82;6.05;;;9.20;71.20;;;8.62;55.70;99759.38;5028473;28;20037;-81
2023/04/15 00:52:26;;;;;;;12.35;6.20;;;9.20;71.40;;;8.59;55.98;99757.97;5029763;28;20080;-79
2023/04/15 00:54:53;;;;;;;14.23;6.72;;;9.20;71.30;;;8.55;55.99;99764.75;5030827;28;20041;-79
2023/04/15 00:59:51;;;;;;;12.52;6.15;;;9.10;71.70;;;8.54;56.08;99770.25;5066126;28;20049;-83
2023/04/15 01:02:19;;;;;;;14.30;6.80;;;9.10;71.80;;;8.52;55.80;99767.81;5051043;28;20409;-83
2023/04/15 01:04:46;;;;;;;14.02;6.82;;;9.10;71.80;;;8.48;55.96;99770.06;5066801;28;20040;-84
2023/04/15 01:07:13;;;;;;;16.55;7.28;;;9.10;71.90;;;8.49;56.17;99762.91;5069585;28;20517;-82
2023/04/15 01:09:42;;;;;;;13.15;6.82;;;9.10;72.10;;;8.48;56.28;99763.97;5054232;28;20056;-82
2023/04/15 01:12:13;;;;;;;12.32;6.97;;;9.20;72.30;;;8.45;56.55;99765.22;5065913;28;20035;-83
2023/04/15 01:14:40;;;;;;;12.82;7.13;;;9.00;72.30;;;8.45;56.27;99759.91;5067139;28;20755;-84
2023/04/15 01:17:07;;;;;;;15.70;7.20;;;9.00;72.10;;;8.45;56.24;99759.09;5045288;28;20040;-82
2023/04/15 01:19:36;;;;;;;13.35;6.70;;;9.00;72.20;;;8.41;56.46;99755.22;5067244;28;20037;-83
2023/04/15 01:22:04;;;;;;;14.98;7.47;;;9.00;72.30;;;8.40;56.30;99753.59;5044326;28;20428;-83
2023/04/15 01:24:33;;;;;;;12.88;6.60;;;9.00;72.20;;;8.37;56.35;99762.00;5043773;28;20060;-82
2023/04/15 01:27:02;;;;;;;12.15;6.45;;;9.00;72.30;;;8.34;56.59;99762.38;5044951;28;20059;-84
2023/04/15 01:29:32;;;;;;;14.43;6.85;;;8.90;72.30;;;8.34;56.54;99762.38;5036236;28;20136;-83
2023/04/15 01:32:00;;;;;;;15.57;7.17;;;8.90;72.50;;;8.31;56.31;99765.47;5047737;28;20041;-82
2023/04/15 01:34:27;;;;;;;13.43;6.63;;;8.90;72.30;;;8.29;56.64;99757.69;5036201;28;20371;-82
2023/04/15 01:36:55;;;;;;;16.67;7.57;;;8.90;72.40;;;8.28;56.70;99758.75;5062093;28;20115;-83
2023/04/15 01:39:22;;;;;;;15.05;6.80;;;8.90;72.60;;;8.26;56.46;99768.78;5049517;28;20048;-85
2023/04/15 01:41:49;;;;;;;10.13;6.32;;;8.90;72.60;;;8.23;56.89;99772.66;5068595;28;20552;-83
2023/04/15 01:44:18;;;;;;;13.40;6.60;;;8.90;72.70;;;8.20;56.54;99773.09;5047163;28;20075;-83
2023/04/15 01:46:45;;;;;;;13.95;7.38;;;8.80;72.60;;;8.18;56.47;99769.81;5065495;28;20044;-84
2023/04/15 01:49:12;;;;;;;11.63;7.07;;;8.80;72.50;;;8.16;56.45;99776.41;5065317;28;20453;-83
2023/04/15 01:51:39;;;;;;;12.95;7.03;;;8.80;72.60;;;8.13;56.49;99774.16;5047137;28;20048;-83
2023/04/15 01:54:07;;;;;;;12.02;7.15;;;8.80;72.70;;;8.11;56.67;99778.88;5041074;28;20038;-83
2023/04/15 01:56:34;;;;;;;13.18;6.78;;;8.70;72.70;;;8.08;56.62;99769.47;5061705;28;20056;-82
2023/04/15 01:59:02;;;;;;;12.63;6.80;;;8.70;72.80;;;8.07;56.87;99765.19;5048540;28;20044;-82
2023/04/15 02:01:31;;;;;;;14.88;7.18;;;8.70;72.70;;;8.05;56.85;99769.88;5047917;28;20044;-82
2023/04/15 02:04:00;;;;;;;13.80;7.18;;;8.70;72.80;;;8.02;56.75;99765.03;5044334;28;20029;-82
2023/04/15 02:06:27;;;;;;;14.57;7.63;;;8.60;72.70;;;8.00;56.78;99772.38;5043871;28;20504;-83
2023/04/15 02:08:56;;;;;;;12.90;6.97;;;8.60;72.90;;;7.97;56.88;99768.31;5043284;28;20052;-84
2023/04/15 02:11:23;;;;;;;14.15;7.60;;;8.60;73.00;;;7.98;56.83;99771.78;5046957;28;20040;-83
2023/04/15 02:13:51;;;;;;;13.18;7.43;;;8.60;73.10;;;7.96;56.83;99761.38;5061574;28;20076;-83
2023/04/15 02:16:20;;;;;;;12.85;7.28;;;8.60;73.00;;;7.93;57.00;99772.41;5038266;28;20528;-82
2023/04/15 02:18:48;;;;;;;13.15;7.25;;;8.50;73.10;;;7.93;57.14;99768.94;5040915;28;20072;-85
2023/04/15 02:21:15;;;;;;;14.95;7.43;;;8.50;73.30;;;7.91;56.92;99773.66;5045291;28;20041;-82
2023/04/15 02:23:44;;;;;;;14.57;7.43;;;8.50;73.30;;;7.91;57.27;99768.34;5045894;28;20041;-84
2023/04/15 02:26:13;;;;;;;13.95;7.47;;;8.50;73.30;;;7.89;56.98;99759.75;5052177;28;20052;-84
2023/04/15 02:28:41;;;;;;;13.63;7.68;;;8.50;73.30;;;7.84;57.24;99765.69;5043252;28;20521;-82
2023/04/15 02:31:08;;;;;;;14.38;7.63;;;8.40;73.30;;;7.82;57.25;99762.47;5037794;28;20045;-84
2023/04/15 02:33:36;;;;;;;13.95;7.78;;;8.40;73.30;;;7.80;57.07;99767.13;5067306;28;20382;-83
2023/04/15 02:36:06;;;;;;;14.02;7.60;;;8.40;73.30;;;7.77;57.14;99769.41;5035845;28;20150;-83
2023/04/15 02:38:33;;;;;;;14.15;8.00;;;8.40;73.30;;;7.75;57.09;99774.91;5058679;28;20650;-83
2023/04/15 02:41:01;;;;;;;15.32;8.07;;;8.30;73.30;;;7.75;57.38;99783.69;5062483;28;20040;-82
2023/04/15 02:43:29;;;;;;;14.05;7.75;;;8.30;73.50;;;7.77;57.17;99793.31;5064405;28;20072;-84
2023/04/15 02:45:56;;;;;;;16.70;7.38;;;8.30;73.50;;;7.74;57.35;99805.97;5052642;28;20037;-83
2023/04/15 02:48:24;;;;;;;13.27;7.15;;;8.30;73.60;;;7.73;57.33;99803.53;5050989;28;20052;-82
2023/04/15 02:50:51;;;;;;;15.25;7.28;;;8.30;73.70;;;7.71;57.57;99800.25;5046325;28;20101;-83
2023/04/15 02:53:20;;;;;;;16.90;8.25;;;8.30;73.80;;;7.70;57.49;99803.94;5062881;28;20040;-83
2023/04/15 02:55:47;;;;;;;14.85;7.90;;;8.30;74.00;;;7.69;57.46;99799.66;5066502;28;20051;-84
2023/04/15 02:58:14;;;;;;;18.55;8.52;;;8.30;74.10;;;7.67;57.72;99804.38;5058717;28;20045;-84
2023/04/15 03:00:41;;;;;;;13.20;7.57;;;8.20;74.00;;;7.66;57.59;99798.25;5063457;28;20059;-84
2023/04/15 03:03:09;;;;;;;16.77;7.55;;;8.20;74.00;;;7.63;57.53;99808.44;5049709;28;20063;-84
2023/04/15 03:05:38;;;;;;;12.50;7.30;;;8.20;74.00;;;7.61;57.89;99811.31;5050460;28;20050;-82
2023/04/15 03:08:05;;;;;;;13.65;7.22;;;8.20;74.10;;;7.58;57.88;99806.44;5045566;28;20048;-82
2023/04/15 03:10:34;;;;;;;11.40;7.10;;;8.20;74.10;;;7.53;58.04;99808.88;5049179;28;20052;-82
2023/04/15 03:13:02;;;;;;;13.02;7.60;;;8.10;74.10;;;7.52;57.66;99814.41;5041095;28;20135;-83
2023/04/15 03:15:29;;;;;;;13.88;7.45;;;8.10;74.10;;;7.51;57.59;99804.78;5042475;28;20064;-83
2023/04/15 03:17:56;;;;;;;12.68;7.57;;;8.10;74.10;;;7.50;57.40;99803.97;5062727;28;20849;-83
2023/04/15 03:20:24;;;;;;;18.88;7.97;;;8.10;74.10;;;7.49;57.80;99812.97;5043309;28;20040;-84
2023/04/15 03:22:51;;;;;;;13.13;8.38;;;8.10;74.20;;;7.48;57.62;99816.66;5053659;28;20045;-83
2023/04/15 03:25:20;;;;;;;14.70;7.82;;;8.10;74.30;;;7.49;58.04;99815.63;5045515;28;20068;-83
2023/04/15 03:27:49;;;;;;;12.80;7.70;;;8.10;74.90;;;7.49;58.05;99818.28;5040703;28;20144;-82
2023/04/15 03:30:17;;;;;;;16.20;8.85;;;8.10;75.00;;;7.49;58.30;99813.78;5046894;28;20044;-82
2023/04/15 03:32:44;;;;;;;15.40;8.57;;;8.10;75.00;;;7.48;58.02;99814.81;5062894;28;20503;-83
2023/04/15 03:35:13;;;;;;;18.25;8.02;;;8.10;74.90;;;7.46;58.14;99819.50;5036059;28;20509;-84
2023/04/15 03:37:40;;;;;;;13.63;8.25;;;8.10;75.00;;;7.44;58.48;99816.25;5066179;28;20055;-82
2023/04/15 03:40:09;;;;;;;12.68;7.72;;;8.00;74.80;;;7.43;58.11;99819.13;5066754;28;20040;-83
2023/04/15 03:42:36;;;;;;;12.50;7.80;;;8.00;74.70;;;7.41;58.26;99829.09;5061532;28;20050;-84
2023/04/15 03:45:07;;;;;;;13.55;7.90;;;8.00;74.90;;;7.37;58.40;99825.22;5055626;28;20045;-84
2023/04/15 03:47:34;;;;;;;16.05;8.02;;;8.00;75.00;;;7.35;58.62;99844.00;5064743;28;20060;-86
2023/04/15 03:50:01;;;;;;;13.75;7.97;;;7.90;74.80;;;7.33;58.32;99837.28;5060285;28;20040;-83
2023/04/15 03:52:29;;;;;;;14.32;7.85;;;7.90;74.80;;;7.32;58.02;99844.44;5061630;28;20493;-83
2023/04/15 03:54:56;;;;;;;12.23;7.30;;;7.90;74.70;;;7.30;58.25;99837.69;5056735;28;20111;-84
2023/04/15 03:57:24;;;;;;;12.88;7.60;;;7.90;74.80;;;7.28;58.26;99837.91;5059261;28;20122;-83
2023/04/15 03:59:51;;;;;;;13.98;7.63;;;7.90;75.00;;;7.27;58.09;99840.75;5051874;28;20040;-84
2023/04/15 04:02:20;;;;;;;13.88;7.82;;;7.80;74.90;;;7.28;58.14;99847.69;5056267;28;20127;-83
2023/04/15 04:04:47;;;;;;;12.05;7.93;;;7.90;75.00;;;7.26;58.49;99841.75;5060292;28;20051;-84
2023/04/15 04:07:16;;;;;;;13.50;8.57;;;7.90;75.30;;;7.28;58.60;99845.84;5066285;28;20045;-83
2023/04/15 04:09:44;;;;;;;18.15;10.50;;;7.80;75.40;;;7.28;58.76;99847.69;5065557;28;20123;-82
2023/04/15 04:12:11;;;;;;;17.25;10.23;;;7.80;75.80;;;7.30;58.95;99843.00;5065364;28;20043;-84
2023/04/15 04:14:38;;;;;;;18.85;9.93;;;7.80;75.80;;;7.29;58.90;99847.47;5071561;28;20072;-82
2023/04/15 04:17:05;;;;;;;15.20;9.55;;;7.80;75.80;;;7.29;59.11;99844.03;5058427;28;20041;-84
2023/04/15 04:19:34;;;;;;;17.90;10.32;;;7.90;76.00;;;7.28;59.02;99845.84;5066544;28;20076;-82
2023/04/15 04:22:01;;;;;;;18.38;10.45;;;7.90;76.10;;;7.28;59.13;99845.84;5063879;28;20040;-84
2023/04/15 04:24:29;;;;;;;19.27;9.70;;;7.80;76.00;;;7.27;59.26;99854.00;5059700;28;20045;-85
2023/04/15 04:26:56;;;;;;;18.35;9.90;;;7.80;75.90;;;7.26;59.20;99855.03;5059770;28;20408;-83
2023/04/15 04:29:23;;;;;;;16.75;9.77;;;7.90;75.90;;;7.25;58.72;99861.34;5057662;28;20052;-83
2023/04/15 04:31:51;;;;;;;18.98;9.65;;;7.80;75.80;;;7.22;59.08;99858.09;5064893;28;20099;-82
2023/04/15 04:34:18;;;;;;;14.30;9.48;;;7.80;75.80;;;7.21;59.12;99855.63;5063662;28;20460;-83
2023/04/15 04:36:46;;;;;;;16.55;9.35;;;7.80;75.60;;;7.19;58.94;99860.34;5061093;28;20063;-84
2023/04/15 04:39:14;;;;;;;14.70;8.88;;;7.80;75.60;;;7.17;58.63;99862.38;5057418;28;20069;-84
2023/04/15 04:41:41;;;;;;;13.45;9.45;;;7.80;75.40;;;7.15;58.84;99869.72;5059205;28;20049;-84
2023/04/15 04:44:08;;;;;;;16.88;9.20;;;7.70;75.50;;;7.12;58.71;99878.88;5066185;28;20043;-82
2023/04/15 04:46:35;;;;;;;15.98;9.75;;;7.70;75.50;;;7.11;58.89;99876.44;5065882;28;20071;-83
2023/04/15 04:49:02;;;;;;;14.45;9.73;;;7.70;75.60;;;7.09;58.83;99879.31;5062156;28;20041;-82
2023/04/15 04:51:31;;;;;;;15.18;10.20;;;7.70;75.60;;;7.09;58.98;99876.66;5066942;28;20045;-80
2023/04/15 04:53:59;;;;;;;19.27;10.30;;;7.70;75.80;;;7.08;58.76;99882.97;5055313;28;20040;-84
2023/04/15 04:56:27;;;;;;;17.98;10.05;;;7.70;75.90;;;7.08;59.23;99882.97;5063485;28;20069;-78
2023/04/15 04:58:54;;;;;;;16.38;10.32;;;7.70;76.10;;;7.09;59.37;99887.25;5058440;28;20049;-77
2023/04/15 05:01:21;;;;;;;17.90;10.40;;;7.70;76.40;;;7.09;59.40;99884.59;5055386;28;20052;-78
2023/04/15 05:03:48;;;;;;;16.17;10.30;;;7.60;76.20;;;7.08;59.44;99888.28;5070477;28;20056;-77
2023/04/15 05:06:16;;;;;;;19.25;10.60;;;7.70;76.50;;;7.09;59.48;99892.56;5064504;28;20037;-77
2023/04/15 05:08:43;;;;;;;17.10;10.38;;;7.70;76.50;;;7.06;59.47;99898.25;5056091;28;20116;-77
2023/04/15 05:11:11;;;;;;;17.58;10.48;;;7.70;76.40;;;7.05;59.40;99899.28;5059299;28;20116;-77
2023/04/15 05:13:39;;;;;;;19.90;11.35;;;7.60;76.40;;;7.06;59.71;99900.09;5067395;28;20078;-77
2023/04/15 05:16:07;;;;;;;18.77;11.85;;;7.60;76.40;;;7.05;59.51;99901.13;5054806;28;20040;-77
2023/04/15 05:18:34;;;;;;;17.38;11.07;;;7.60;76.50;;;7.04;59.85;99910.91;5065488;28;20756;-77
2023/04/15 05:21:02;;;;;;;20.52;11.55;;;7.60;76.50;;;7.03;59.67;99909.28;5065919;28;20520;-78
2023/04/15 05:23:29;;;;;;;16.50;10.90;;;7.60;76.60;;;7.04;59.91;99913.56;5058733;28;20078;-78
2023/04/15 05:25:56;;;;;;;20.95;10.98;;;7.60;76.70;;;7.05;59.71;99912.53;5059489;28;20124;-78
2023/04/15 05:28:25;;;;;;;17.25;10.82;;;7.60;76.80;;;7.04;59.73;99910.91;5061449;28;20116;-76
2023/04/15 05:30:52;;;;;;;17.35;10.88;;;7.60;76.90;;;7.06;59.88;99923.97;5065694;28;20074;-79
2023/04/15 05:33:19;;;;;;;21.52;12.15;;;7.60;77.10;;;7.10;60.28;99919.88;5055447;28;20072;-77
2023/04/15 05:35:46;;;;;;;18.25;11.13;;;7.70;77.30;;;7.11;60.29;99919.69;5056082;28;20746;-77
2023/04/15 05:38:14;;;;;;;15.15;10.95;;;7.70;77.40;;;7.11;60.42;99927.63;5063102;28;20049;-78
2023/04/15 05:40:41;;;;;;;17.33;11.00;;;7.70;77.30;;;7.13;60.53;99925.63;5066712;28;20040;-78
2023/04/15 05:43:08;;;;;;;18.38;11.30;;;7.70;77.50;;;7.13;60.54;99925.63;5070332;28;20047;-79
2023/04/15 05:45:37;;;;;;;16.35;11.43;;;7.70;77.50;;;7.16;60.83;99933.16;5056141;28;20503;-77
2023/04/15 05:48:04;;;;;;;17.75;10.88;;;7.70;77.60;;;7.18;60.71;99944.38;5064320;28;20048;-76
2023/04/15 05:50:32;;;;;;;17.90;11.95;;;7.80;77.70;;;7.21;60.76;99937.84;5066343;28;20496;-77
2023/04/15 05:52:59;;;;;;;16.65;10.90;;;7.80;78.00;;;7.25;61.27;99946.22;5070064;28;20222;-80
2023/04/15 05:55:26;;;;;;;16.70;11.77;;;7.80;78.20;;;7.27;61.18;99949.47;5066325;28;20042;-77
2023/04/15 05:57:53;;;;;;;20.20;11.60;;;7.80;78.20;;;7.30;61.57;99952.53;5065460;28;20515;-86
2023/04/15 06:00:21;;;;;;;17.98;12.18;;;7.90;78.70;;;7.32;61.35;99950.53;5061938;28;20094;-80
2023/04/15 06:02:50;;;;;;;17.92;10.93;;;7.90;78.80;;;7.34;61.89;99955.63;5060900;28;20047;-80
2023/04/15 06:05:17;;;;;;;19.23;11.82;;;7.90;79.20;;;7.37;61.70;99958.69;5066168;28;20127;-79
2023/04/15 06:07:45;;;;;;;20.45;12.32;;;7.90;79.10;;;7.38;62.17;99960.31;5064513;28;20044;-78
2023/04/15 06:10:12;;;;;;;21.77;12.55;;;7.90;79.30;;;7.42;61.98;99960.75;5061081;28;20386;-80
2023/04/15 06:12:39;;;;;;;21.17;12.65;;;7.90;79.30;;;7.45;62.33;99969.09;5068960;28;20055;-81
2023/04/15 06:15:09;;;;;;;22.92;14.02;;;8.00;79.40;;;7.50;62.36;99965.81;5064599;28;20040;-79
2023/04/15 06:17:36;;;;;;;18.08;12.52;;;8.00;79.60;;;7.54;62.55;99963.59;5060525;28;20048;-79
2023/04/15 06:20:07;;;;;;;21.27;13.65;;;8.10;79.80;;;7.61;62.73;99975.84;5064747;28;20037;-78
2023/04/15 06:22:36;;;;;;;20.42;13.77;;;8.20;80.00;;;7.66;63.00;99973.41;5068724;28;20119;-80
2023/04/15 06:25:05;;;;;;;20.95;13.70;;;8.20;80.50;;;7.71;62.87;99970.94;5064813;28;20496;-80
2023/04/15 06:27:32;;;;;;;24.10;15.07;;;8.30;80.40;;;7.78;63.23;99980.75;5067737;28;20044;-78
2023/04/15 06:29:59;;;;;;;23.23;13.88;;;8.40;80.40;;;7.85;63.31;99984.19;5064451;28;20105;-78
2023/04/15 06:32:27;;;;;;;21.77;14.95;;;8.40;80.50;;;7.92;63.29;99985.03;5041370;28;20064;-79
2023/04/15 06:34:54;;;;;;;22.63;15.10;;;8.40;80.70;;;7.96;63.47;99988.91;5065987;28;20119;-81
2023/04/15 06:37:22;;;;;;;21.75;14.50;;;8.50;81.00;;;8.02;63.45;99988.06;5066991;28;20045;-78
2023/04/15 06:39:50;;;;;;;22.05;14.48;;;8.60;80.90;;;8.11;63.60;99991.34;5050274;28;20190;-79
2023/04/15 06:42:17;;;;;;;20.95;14.65;;;8.70;81.40;;;8.21;64.05;99992.53;5063940;28;20044;-80
2023/04/15 06:44:44;;;;;;;19.45;12.93;;;8.80;81.80;;;8.33;63.82;99997.22;5068190;28;20067;-79
2023/04/15 06:47:13;;;;;;;19.02;13.77;;;8.90;81.50;;;8.40;63.72;99996.22;5066858;28;20055;-79
2023/04/15 06:49:41;;;;;;;20.55;14.00;;;8.90;81.20;;;8.51;63.67;100002.72;5044013;28;20048;-80
2023/04/15 06:52:10;;;;;;;24.63;13.90;;;9.00;81.20;;;8.62;63.62;100004.72;5065263;28;20051;-79
2023/04/15 06:54:38;;;;;;;19.55;14.05;;;9.20;81.20;;;8.73;63.83;100006.72;5057765;28;20566;-80
2023/04/15 06:57:06;;;;;;;21.35;13.93;;;9.30;81.40;;;8.84;63.32;100007.09;5065464;28;20894;-79
2023/04/15 06:59:33;;;;;;;19.75;13.85;;;9.40;80.90;;;8.95;63.25;100012.56;5064045;22;20120;-77
2023/04/15 07:02:01;;;;;;;24.33;14.90;;;9.50;80.90;;;9.02;63.32;100013.34;5067516;28;20569;-78
2023/04/15 07:04:28;;;;;;;21.48;14.32;;;9.80;80.60;;;9.09;63.08;100002.69;5059800;28;20048;-77
2023/04/15 07:06:55;;;;;;;23.52;14.40;;;9.70;80.40;;;9.14;63.15;100010.84;5068231;28;20068;-78
2023/04/15 07:09:24;;;;;;;21.92;15.15;;;9.80;80.40;;;9.19;63.05;100015.53;5070457;28;20570;-79
2023/04/15 07:11:53;;;;;;;23.17;15.05;;;9.80;80.10;;;9.28;62.87;100012.41;5075854;28;20122;-77
2023/04/15 07:14:20;;;;;;;25.58;15.27;;;9.80;80.00;;;9.37;63.41;100015.63;5067351;28;20101;-79
2023/04/15 07:16:47;;;;;;;21.35;14.93;;;10.00;80.40;;;9.43;63.00;100013.94;5058956;28;20444;-81
2023/04/15 07:19:15;;;;;;;23.98;15.25;;;10.10;80.10;;;9.50;63.16;100026.16;5063840;28;20489;-80
2023/04/15 07:21:42;;;;;;;23.05;14.82;;;10.20;80.20;;;9.56;63.06;100024.47;5071561;28;20048;-78
2023/04/15 07:24:09;;;;;;;21.90;15.05;;;10.20;80.10;;;9.63;63.25;100022.59;5065622;28;20041;-77
2023/04/15 07:26:37;;;;;;;21.83;15.10;;;10.30;80.40;;;9.68;63.08;100025.44;5061715;28;20036;-78
2023/04/15 07:29:06;;;;;;;23.40;14.20;;;10.40;79.90;;;9.67;62.72;100026.47;5061136;28;20048;-77
2023/04/15 07:31:33;;;;;;;22.73;14.38;;;10.40;79.70;;;9.69;62.94;100028.91;5062738;28;20041;-78
2023/04/15 07:34:00;;;;;;;19.50;13.27;;;10.40;79.90;;;9.69;62.81;100036.91;5059684;28;20122;-77
2023/04/15 07:36:28;;;;;;;21.83;13.80;;;10.40;79.70;;;9.67;62.93;100037.13;5062330;28;20092;-79
2023/04/15 07:38:55;;;;;;;20.38;12.82;;;10.30;79.60;;;9.64;62.47;100040.22;5065156;28;20048;-78
2023/04/15 07:41:23;;;;;;;18.20;13.07;;;10.40;79.10;;;9.62;62.66;100049.47;5063933;28;20041;-78
2023/04/15 07:43:50;;;;;;;19.33;12.63;;;10.30;79.30;;;9.59;62.33;100050.69;5061894;28;20045;-78
2023/04/15 07:46:19;;;;;;;17.17;12.90;;;10.30;79.00;;;9.59;62.55;100050.69;5070706;28;20044;-77
2023/04/15 07:48:46;;;;;;;18.10;13.05;;;10.30;79.20;;;9.65;63.05;100043.69;5062578;28;20421;-84
2023/04/15 07:51:13;;;;;;;20.90;13.02;;;10.30;79.80;;;9.70;63.10;100042.00;5060896;28;20124;-81
2023/04/15 07:53:41;;;;;;;19.65;13.63;;;10.40;79.80;;;9.79;63.01;100043.38;5066930;28;20103;-82
2023/04/15 07:56:08;;;;;;;19.65;13.50;;;10.40;79.80;;;9.83;62.41;100048.28;5064757;28;20116;-80
2023/04/15 07:58:36;;;;;;;19.23;12.98;;;10.50;79.20;;;9.84;62.68;100049.91;5068734;28;20044;-81
2023/04/15 08:01:04;;;;;;;19.38;13.05;;;10.50;79.40;;;9.87;62.30;100041.50;5065431;28;20047;-81
2023/04/15 08:03:33;;;;;;;16.83;12.15;;;10.50;79.10;;;9.90;62.03;100049.84;5065852;28;20528;-83
2023/04/15 08:06:00;;;;;;;23.25;11.98;;;10.60;78.70;;;9.93;61.86;100049.41;5058203;28;20067;-80
2023/04/15 08:08:27;;;;;;;18.42;12.23;;;10.60;78.60;;;9.98;61.73;100054.09;5055906;28;20083;-80
2023/04/15 08:10:55;;;;;;;17.67;11.73;;;10.60;78.40;;;9.96;61.72;100058.84;5062398;28;20466;-83
2023/04/15 08:13:22;;;;;;;15.65;11.15;;;10.60;78.30;;;10.00;61.65;100060.00;5061754;28;20103;-82
2023/04/15 08:16:18;;;;;;;17.70;10.77;;;10.70;78.40;;;10.06;61.49;100056.50;5060618;28;20163;-82
2023/04/15 08:18:48;;;;;;;15.45;10.75;;;10.70;78.20;;;10.12;61.60;100054.81;5056968;28;20047;-81
2023/04/15 08:21:16;;;;;;;18.27;10.98;;;10.80;78.20;;;10.15;61.41;100055.19;5065939;28;20041;-82
2023/04/15 08:23:44;;;;;;;18.77;11.10;;;10.90;78.20;;;10.22;60.90;100061.25;5066360;28;20562;-81
2023/04/15 08:26:11;;;;;;;16.70;10.60;;;10.90;77.50;;;10.18;60.70;100057.41;5064498;28;20124;-81
2023/04/15 08:28:41;;;;;;;15.18;9.45;;;10.90;77.30;;;10.22;59.78;100063.13;5072006;28;20476;-81
2023/04/15 08:31:08;;;;;;;15.52;9.82;;;10.90;76.60;;;10.26;60.04;100067.00;5061289;28;20040;-82
2023/04/15 08:33:35;;;;;;;15.18;10.15;;;11.00;76.60;;;10.27;59.57;100069.44;5058380;28;20400;-80
2023/04/15 08:36:05;;;;;;;15.15;10.15;;;11.00;75.90;;;10.27;59.73;100057.97;5069707;28;20440;-83
2023/04/15 08:38:32;;;;;;;15.38;10.25;;;11.00;76.20;;;10.31;59.97;100061.84;5064704;28;20070;-81
2023/04/15 08:41:04;;;;;;;12.75;8.60;;;11.00;76.60;;;10.37;60.27;100066.28;5066642;28;20404;-81
2023/04/15 08:43:40;;;;;;;14.95;8.95;;;11.10;77.00;;;10.50;61.67;100060.00;5065358;28;20051;-81
2023/04/15 08:46:09;;;;;;;12.95;7.90;;;11.20;78.10;;;10.57;59.53;100068.75;5067593;28;20060;-81
2023/04/15 08:48:39;;;;;;;9.10;6.10;;;11.30;76.00;;;10.66;59.50;100078.09;5075088;28;20051;-81
2023/04/15 08:51:08;;;;;;;8.23;5.25;;;11.30;75.90;;;10.71;57.71;100072.09;5081270;28;20043;-80
2023/04/15 08:53:37;;;;;;;8.23;5.50;;;11.40;73.70;;;10.74;58.04;100069.00;5072619;28;20052;-80
2023/04/15 08:56:07;;;;;;;8.18;5.60;;;11.50;74.30;;;10.76;57.02;100075.72;5073857;28;20115;-81
2023/04/15 08:58:35;;;;;;;11.65;6.32;;;11.50;72.90;;;10.79;57.06;100069.16;5070569;28;20420;-81
2023/04/15 09:01:03;;;;;;;9.48;5.93;;;11.70;73.30;;;10.83;57.23;100068.47;5082419;28;20559;-81
2023/04/15 09:03:31;;;;;;;9.57;5.03;;;11.60;73.20;;;10.86;57.11;100080.53;5074905;28;20497;-80
2023/04/15 09:05:59;;;;;;;7.40;4.90;;;11.80;73.10;;;10.88;56.00;100086.47;5070548;28;20037;-81
2023/04/15 09:08:28;;;;;;;7.40;5.47;;;11.60;71.80;;;10.91;56.35;100085.22;5072418;28;20127;-81
2023/04/15 09:10:55;;;;;;;8.35;5.20;;;11.60;72.20;;;10.94;56.25;100090.13;5072551;28;20089;-82
2023/04/15 09:13:22;;;;;;;14.57;5.47;;;11.70;72.20;;;10.92;55.90;100089.50;5058910;28;20048;-80
2023/04/15 09:15:50;;;;;;;8.25;5.28;;;11.70;71.80;;;10.89;56.15;100101.44;5068417;28;20393;-80
2023/04/15 09:18:29;;;;;;;11.98;6.25;;;11.70;71.70;;;10.88;56.52;100101.66;5067775;28;20040;-80
2023/04/15 09:21:04;;;;;;;9.23;5.47;;;11.70;72.20;;;10.86;56.32;100109.88;5073991;28;20516;-81
2023/04/15 09:23:33;;;;;;;9.20;6.25;;;11.60;72.00;;;10.89;56.93;100108.66;5069693;28;20044;-82
2023/04/15 09:26:01;;;;;;;8.50;5.40;;;11.70;72.70;;;10.94;57.37;100108.78;5070809;28;20511;-80
2023/04/15 09:28:29;;;;;;;8.55;5.70;;;11.70;73.30;;;10.98;57.20;100107.28;5078301;28;20050;-79
2023/04/15 09:30:57;;;;;;;8.82;5.63;;;11.70;73.10;;;11.04;57.41;100122.44;5083281;28;20115;-82
2023/04/15 09:33:25;;;;;;;8.52;5.82;;;11.80;73.50;;;11.08;56.70;100124.44;5080979;28;20056;-82
2023/04/15 09:36:02;;;;;;;9.82;6.68;;;11.80;72.60;;;11.03;56.79;100118.13;5069725;28;20043;-81
2023/04/15 09:38:29;;;;;;;12.00;6.72;;;11.80;72.50;;;11.05;57.63;100110.72;5060001;28;20138;-81
2023/04/15 09:40:59;;;;;;;13.30;7.00;;;11.80;73.50;;;11.07;56.90;100129.97;5077815;28;20040;-81
2023/04/15 09:43:39;;;;;;;9.48;6.88;;;11.80;72.50;;;10.95;56.53;100121.91;5060726;28;20500;-82
2023/04/15 09:46:06;;;;;;;11.82;6.30;;;11.70;72.30;;;10.95;57.13;100118.41;5066867;28;20539;-83
2023/04/15 09:48:33;;;;;;;8.20;5.68;;;11.70;72.90;;;10.95;57.48;100121.91;5064935;28;20044;-83
2023/04/15 09:51:01;;;;;;;8.88;5.70;;;11.70;73.30;;;10.97;57.57;100132.34;5069492;28;20051;-82
2023/04/15 09:53:29;;;;;;;9.95;6.13;;;11.70;73.40;;;10.99;57.84;100127.63;5073298;28;20121;-83
2023/04/15 09:56:00;;;;;;;8.35;5.57;;;11.70;73.50;;;10.98;57.35;100125.97;5068938;28;20028;-81
2023/04/15 09:58:29;;;;;;;9.25;5.93;;;11.70;73.30;;;11.01;58.25;100138.88;5074875;28;20070;-80
2023/04/15 10:00:58;;;;;;;8.23;5.40;;;11.80;73.90;;;11.03;58.07;100139.47;5067195;28;20419;-82
2023/04/15 10:03:28;;;;;;;8.75;5.90;;;11.80;73.90;;;11.03;58.00;100144.81;5072211;28;20692;-82
2023/04/15 10:05:57;;;;;;;7.97;5.30;;;11.80;73.90;;;11.06;58.85;100145.16;5067720;28;20119;-81
2023/04/15 10:08:28;;;;;;;7.38;5.05;;;11.80;74.90;;;11.07;58.27;100141.47;5068180;28;20105;-81
2023/04/15 10:10:55;;;;;;;8.30;5.20;;;11.80;74.10;;;11.06;58.05;100147.03;5069465;28;20128;-81
2023/04/15 10:13:27;;;;;;;8.52;5.45;;;11.80;73.90;;;11.07;58.17;100148.66;5085196;28;20043;-84
2023/04/15 10:15:59;;;;;;;7.18;4.90;;;11.80;73.90;;;11.08;58.46;100148.44;5056133;28;20050;-84
2023/04/15 10:18:28;;;;;;;9.23;4.82;;;11.80;74.20;;;11.14;58.49;100154.75;5079829;28;20112;-83
2023/04/15 10:20:55;;;;;;;8.90;5.03;;;11.90;74.50;;;11.16;58.27;100151.84;5074085;28;20045;-81
2023/04/15 10:23:24;;;;;;;7.82;4.80;;;11.90;74.10;;;11.15;58.71;100152.88;5066525;28;20143;-84